Strona główna
METAR-TAF:

METAR-TAF

Lotnisko :

Pikeville, Kentucky, Stany Zjednoczone

Szerokość geograficzna: 37-33-42N, Długość geograficzna: 082-33-59W, wysokość: 449 m

Aktualna obserwacja pogody

Raport powstał 20 minut temu, godzina 04:55 UTC
Cisza
Temperatura 7°C
Wilgotność 61%
Ciśnienie 1020 hPa
Widzialność: 16.1 km
Zachmurzenie całkowite na wysokości 5000 ft

METAR: KPBX 170455Z AUTO 00000KT 10SM OVC050 07/00 A3011 RMK AO2 T00700001 401350040

czas: 00:15 (05:15 UTC)


TAF: brakujący

Obserwacja i prognoza pogody dla ponad 4000 lotnisk (raport METAR i TAF).

Dostępne stacje oznaczono żółtymi i czerwonymi punktami na mapie.

Najedź kursorem aby zobaczyć nazwę stacji.

Kliknij aby zobaczyć obserwacje i prognozy pogody.

Aby zmienić mapę: kliknij na zielony przycisk z czarnym krzyżykiem, aby powiększyć; na zielony przycisk z myślnikiem, aby pomniejszyć; na zielone strzałki, aby przejść do map sąsiednich.


METAR-TAF: